createdAt,value
2023-05-18T00:00:59.852Z,0.00
2023-05-18T00:01:59.790Z,0.00
2023-05-18T00:02:38.797Z,0.00
2023-05-18T00:03:38.827Z,0.00
2023-05-18T00:04:38.752Z,0.00
2023-05-18T00:05:59.589Z,0.00
2023-05-18T00:06:59.507Z,0.00
2023-05-18T00:07:38.489Z,0.00
2023-05-18T00:08:38.600Z,0.00
2023-05-18T00:09:38.380Z,0.00
2023-05-18T00:10:59.284Z,0.00
2023-05-18T00:11:59.279Z,0.00
2023-05-18T00:12:38.187Z,0.00
2023-05-18T00:13:38.152Z,0.00
2023-05-18T00:14:38.080Z,0.00
2023-05-18T00:15:59.078Z,0.00
2023-05-18T00:16:58.964Z,0.00
2023-05-18T00:17:38.975Z,0.00
2023-05-18T00:18:37.901Z,0.00
2023-05-18T00:19:37.829Z,0.00
2023-05-18T00:20:58.863Z,0.00
2023-05-18T00:21:58.710Z,0.00
2023-05-18T00:22:37.652Z,0.00
2023-05-18T00:23:37.617Z,0.00
2023-05-18T00:24:37.543Z,0.00
2023-05-18T00:25:58.473Z,0.00
2023-05-18T00:26:58.421Z,0.00
2023-05-18T00:27:37.364Z,0.00
2023-05-18T00:28:37.321Z,0.00
2023-05-18T00:29:37.273Z,0.00
2023-05-18T00:30:58.197Z,0.00
2023-05-18T00:31:58.254Z,0.00
2023-05-18T00:32:37.126Z,0.00
2023-05-18T00:33:37.029Z,0.00
2023-05-18T00:34:38.912Z,0.00
2023-05-18T00:35:57.905Z,0.00
2023-05-18T00:36:57.860Z,0.00
2023-05-18T00:37:36.816Z,0.00
2023-05-18T00:38:37.954Z,0.00
2023-05-18T00:39:36.749Z,0.00
2023-05-18T00:41:00.512Z,0.00
2023-05-18T00:41:57.605Z,0.00
2023-05-18T00:42:36.548Z,0.00
2023-05-18T00:43:36.490Z,0.00
2023-05-18T00:44:36.418Z,0.00
2023-05-18T00:45:57.403Z,0.00
2023-05-18T00:46:57.328Z,0.00
2023-05-18T00:47:36.304Z,0.00
2023-05-18T00:48:36.218Z,0.00
2023-05-18T00:49:36.160Z,0.00
2023-05-18T00:50:57.098Z,0.00
2023-05-18T00:51:57.043Z,0.00
2023-05-18T00:52:35.988Z,0.00
2023-05-18T00:53:35.948Z,0.00
2023-05-18T00:54:35.859Z,0.00
2023-05-18T00:55:56.826Z,0.00
2023-05-18T00:56:56.746Z,0.00
2023-05-18T00:57:35.700Z,0.00
2023-05-18T00:58:35.655Z,0.00
2023-05-18T00:59:35.601Z,0.00
2023-05-18T01:00:56.574Z,0.00
2023-05-18T01:01:56.502Z,0.00
2023-05-18T01:02:35.489Z,0.00
2023-05-18T01:03:35.460Z,0.00
2023-05-18T01:04:35.316Z,0.00
2023-05-18T01:05:56.266Z,0.00
2023-05-18T01:06:56.170Z,0.00
2023-05-18T01:07:35.168Z,0.00
2023-05-18T01:08:35.098Z,0.00
2023-05-18T01:09:35.034Z,0.00
2023-05-18T01:10:56.004Z,0.00
2023-05-18T01:11:55.940Z,0.00
2023-05-18T01:12:34.883Z,0.00
2023-05-18T01:13:34.835Z,0.00
2023-05-18T01:14:34.758Z,0.00
2023-05-18T01:15:55.704Z,0.00
2023-05-18T01:16:55.672Z,0.00
2023-05-18T01:17:34.632Z,0.00
2023-05-18T01:18:34.599Z,0.00
2023-05-18T01:19:34.483Z,0.00
2023-05-18T01:20:55.435Z,0.00
2023-05-18T01:21:55.367Z,0.00
2023-05-18T01:22:34.328Z,0.00
2023-05-18T01:23:34.276Z,0.00
2023-05-18T01:24:34.213Z,0.00
2023-05-18T01:25:55.153Z,0.00
2023-05-18T01:26:55.090Z,0.00
2023-05-18T01:27:34.064Z,0.00
2023-05-18T01:28:33.994Z,0.00
2023-05-18T01:29:33.951Z,0.00
2023-05-18T01:30:54.899Z,0.00
2023-05-18T01:31:54.819Z,0.00
2023-05-18T01:32:33.843Z,0.00
2023-05-18T01:33:33.730Z,0.00
2023-05-18T01:34:33.651Z,0.00
2023-05-18T01:35:54.595Z,0.00
2023-05-18T01:36:54.521Z,0.00
2023-05-18T01:37:33.490Z,0.00
2023-05-18T01:38:33.419Z,0.00
2023-05-18T01:39:33.388Z,0.00
2023-05-18T01:40:54.300Z,0.00
2023-05-18T01:41:54.280Z,0.00
2023-05-18T01:42:33.197Z,0.00
2023-05-18T01:43:33.172Z,0.00
2023-05-18T01:44:33.114Z,0.00
2023-05-18T01:45:54.041Z,0.00
2023-05-18T01:46:54.042Z,0.00
2023-05-18T01:47:32.980Z,0.00
2023-05-18T01:48:32.878Z,0.00
2023-05-18T01:49:32.831Z,0.00
2023-05-18T01:50:53.749Z,0.00
2023-05-18T01:51:53.700Z,0.00
2023-05-18T01:52:32.645Z,0.00
2023-05-18T01:53:32.606Z,0.00
2023-05-18T01:54:32.553Z,0.00
2023-05-18T01:55:53.475Z,0.00
2023-05-18T01:56:53.416Z,0.00
2023-05-18T01:57:32.373Z,0.00
2023-05-18T01:58:32.317Z,0.00
2023-05-18T01:59:32.245Z,0.00
2023-05-18T02:00:53.199Z,0.00
2023-05-18T02:01:59.401Z,0.00
2023-05-18T02:02:32.194Z,0.00
2023-05-18T02:03:32.104Z,0.00
2023-05-18T02:04:31.983Z,0.00
2023-05-18T02:05:52.909Z,0.00
2023-05-18T02:06:52.897Z,0.00
2023-05-18T02:07:31.806Z,0.00
2023-05-18T02:08:31.775Z,0.00
2023-05-18T02:09:31.711Z,0.00
2023-05-18T02:10:52.678Z,0.00
2023-05-18T02:11:52.578Z,0.00
2023-05-18T02:12:31.555Z,0.00
2023-05-18T02:13:31.477Z,0.00
2023-05-18T02:14:31.431Z,0.00
2023-05-18T02:15:52.401Z,0.00
2023-05-18T02:16:52.297Z,0.00
2023-05-18T02:17:31.258Z,0.00
2023-05-18T02:18:31.200Z,0.00
2023-05-18T02:19:31.194Z,0.00
2023-05-18T02:20:52.088Z,0.00
2023-05-18T02:21:52.002Z,0.00
2023-05-18T02:22:30.979Z,0.00
2023-05-18T02:23:30.910Z,0.00
2023-05-18T02:24:30.878Z,0.00
2023-05-18T02:25:51.797Z,0.00
2023-05-18T02:26:51.721Z,0.00
2023-05-18T02:27:30.687Z,0.00
2023-05-18T02:28:30.637Z,0.00
2023-05-18T02:29:30.576Z,0.00
2023-05-18T02:30:51.516Z,0.00
2023-05-18T02:31:51.497Z,0.00
2023-05-18T02:32:30.431Z,0.00
2023-05-18T02:33:30.358Z,0.00
2023-05-18T02:34:30.302Z,0.00
2023-05-18T02:35:51.218Z,0.00
2023-05-18T02:36:51.197Z,0.00
2023-05-18T02:37:30.144Z,0.00
2023-05-18T02:38:30.159Z,0.00
2023-05-18T02:39:30.032Z,0.00
2023-05-18T02:40:50.948Z,0.00
2023-05-18T02:41:50.903Z,0.00
2023-05-18T02:42:29.857Z,0.00
2023-05-18T02:43:29.797Z,0.00
2023-05-18T02:44:29.758Z,0.00
2023-05-18T02:45:50.720Z,0.00
2023-05-18T02:46:50.630Z,0.00
2023-05-18T02:47:29.722Z,0.00
2023-05-18T02:48:29.514Z,0.00
2023-05-18T02:49:29.471Z,0.00
2023-05-18T02:50:50.419Z,0.00
2023-05-18T02:51:50.347Z,0.00
2023-05-18T02:52:29.307Z,0.00
2023-05-18T02:53:29.247Z,0.00
2023-05-18T02:54:29.186Z,0.00
2023-05-18T02:55:50.118Z,0.00
2023-05-18T02:56:50.059Z,0.00
2023-05-18T02:57:29.029Z,0.00
2023-05-18T02:58:28.948Z,0.00
2023-05-18T02:59:28.908Z,0.00
2023-05-18T03:00:49.868Z,0.00
2023-05-18T03:01:49.837Z,0.00
2023-05-18T03:02:28.783Z,0.00
2023-05-18T03:03:28.738Z,0.00
2023-05-18T03:04:28.617Z,0.00
2023-05-18T03:05:49.564Z,0.00
2023-05-18T03:06:49.496Z,0.00
2023-05-18T03:07:28.466Z,0.00
2023-05-18T03:08:28.394Z,0.00
2023-05-18T03:09:28.363Z,0.00
2023-05-18T03:10:49.304Z,0.00
2023-05-18T03:11:49.230Z,0.00
2023-05-18T03:12:28.184Z,0.00
2023-05-18T03:13:30.057Z,0.00
2023-05-18T03:14:28.073Z,0.00
2023-05-18T03:15:49.019Z,0.00
2023-05-18T03:16:49.015Z,0.00
2023-05-18T03:17:27.936Z,0.00
2023-05-18T03:18:27.856Z,0.00
2023-05-18T03:19:27.777Z,0.00
2023-05-18T03:20:48.734Z,0.00
2023-05-18T03:21:48.668Z,0.00
2023-05-18T03:22:27.644Z,0.00
2023-05-18T03:23:27.563Z,0.00
2023-05-18T03:24:27.531Z,0.00
2023-05-18T03:25:48.441Z,0.00
2023-05-18T03:26:48.426Z,0.00
2023-05-18T03:27:27.339Z,0.00
2023-05-18T03:28:27.354Z,0.00
2023-05-18T03:29:28.244Z,0.00
2023-05-18T03:30:48.170Z,0.00
2023-05-18T03:31:48.154Z,0.00
2023-05-18T03:32:27.105Z,0.00
2023-05-18T03:33:27.014Z,0.00
2023-05-18T03:34:26.947Z,0.00
2023-05-18T03:35:48.698Z,0.00
2023-05-18T03:36:47.839Z,0.00
2023-05-18T03:37:26.792Z,0.00
2023-05-18T03:38:26.735Z,0.00
2023-05-18T03:39:26.670Z,4.00
2023-05-18T03:40:47.595Z,4.00
2023-05-18T03:41:47.555Z,4.00
2023-05-18T03:42:26.513Z,4.00
2023-05-18T03:43:26.431Z,0.00
2023-05-18T03:44:26.414Z,0.00
2023-05-18T03:45:47.321Z,0.00
2023-05-18T03:46:47.320Z,4.00
2023-05-18T03:47:26.208Z,4.00
2023-05-18T03:48:26.168Z,4.00
2023-05-18T03:49:26.110Z,4.00
2023-05-18T03:50:47.041Z,4.00
2023-05-18T03:51:47.059Z,4.00
2023-05-18T03:52:25.946Z,8.00
2023-05-18T03:53:25.881Z,4.00
2023-05-18T03:54:25.847Z,4.00
2023-05-18T03:55:46.791Z,4.00
2023-05-18T03:56:46.716Z,4.00
2023-05-18T03:57:25.678Z,4.00
2023-05-18T03:58:25.609Z,8.00
2023-05-18T03:59:25.547Z,8.00
2023-05-18T04:00:46.489Z,4.00
2023-05-18T04:01:46.449Z,4.00
2023-05-18T04:02:25.457Z,8.00
2023-05-18T04:03:25.380Z,8.00
2023-05-18T04:04:25.298Z,8.00
2023-05-18T04:05:46.231Z,8.00
2023-05-18T04:06:46.152Z,8.00
2023-05-18T04:07:25.101Z,8.00
2023-05-18T04:08:25.049Z,8.00
2023-05-18T04:09:24.994Z,12.00
2023-05-18T04:10:45.933Z,8.00
2023-05-18T04:11:45.860Z,8.00
2023-05-18T04:12:24.822Z,12.00
2023-05-18T04:13:24.801Z,12.00
2023-05-18T04:14:24.721Z,12.00
2023-05-18T04:15:45.625Z,12.00
2023-05-18T04:16:45.637Z,12.00
2023-05-18T04:17:24.541Z,16.00
2023-05-18T04:18:24.473Z,12.00
2023-05-18T04:19:24.448Z,12.00
2023-05-18T04:20:45.378Z,12.00
2023-05-18T04:21:45.286Z,16.00
2023-05-18T04:22:24.249Z,16.00
2023-05-18T04:23:24.209Z,16.00
2023-05-18T04:24:24.140Z,16.00
2023-05-18T04:25:45.122Z,20.00
2023-05-18T04:26:45.060Z,16.00
2023-05-18T04:27:23.980Z,20.00
2023-05-18T04:28:23.925Z,20.00
2023-05-18T04:29:23.863Z,16.00
2023-05-18T04:30:44.799Z,16.00
2023-05-18T04:31:44.891Z,20.00
2023-05-18T04:32:23.825Z,20.00
2023-05-18T04:33:23.639Z,20.00
2023-05-18T04:34:23.589Z,20.00
2023-05-18T04:35:44.503Z,20.00
2023-05-18T04:36:44.479Z,24.00
2023-05-18T04:37:23.422Z,20.00
2023-05-18T04:38:23.361Z,24.00
2023-05-18T04:39:23.301Z,20.00
2023-05-18T04:40:44.243Z,24.00
2023-05-18T04:41:44.188Z,24.00
2023-05-18T04:42:23.129Z,24.00
2023-05-18T04:43:23.063Z,24.00
2023-05-18T04:44:23.040Z,28.00
2023-05-18T04:45:43.986Z,28.00
2023-05-18T04:46:43.910Z,28.00
2023-05-18T04:47:22.856Z,32.00
2023-05-18T04:48:22.798Z,40.00
2023-05-18T04:49:22.736Z,44.00
2023-05-18T04:50:43.685Z,48.00
2023-05-18T04:51:43.630Z,48.00
2023-05-18T04:52:22.585Z,52.00
2023-05-18T04:53:22.526Z,52.00
2023-05-18T04:54:22.464Z,52.00
2023-05-18T04:55:43.374Z,52.00
2023-05-18T04:56:43.329Z,52.00
2023-05-18T04:57:22.292Z,52.00
2023-05-18T04:58:22.223Z,52.00
2023-05-18T04:59:22.225Z,56.00
2023-05-18T05:00:43.108Z,56.00
2023-05-18T05:01:43.115Z,56.00
2023-05-18T05:02:22.124Z,60.00
2023-05-18T05:03:22.006Z,60.00
2023-05-18T05:04:21.921Z,60.00
2023-05-18T05:05:42.835Z,60.00
2023-05-18T05:06:42.765Z,60.00
2023-05-18T05:07:21.728Z,64.00
2023-05-18T05:08:21.683Z,64.00
2023-05-18T05:09:21.614Z,64.00
2023-05-18T05:10:42.547Z,64.00
2023-05-18T05:11:42.486Z,64.00
2023-05-18T05:12:21.445Z,64.00
2023-05-18T05:13:21.392Z,64.00
2023-05-18T05:14:21.344Z,64.00
2023-05-18T05:15:42.312Z,64.00
2023-05-18T05:16:42.219Z,64.00
2023-05-18T05:17:21.174Z,64.00
2023-05-18T05:18:21.122Z,64.00
2023-05-18T05:19:21.103Z,68.00
2023-05-18T05:20:41.974Z,64.00
2023-05-18T05:21:41.923Z,64.00
2023-05-18T05:22:35.611Z,64.00
2023-05-18T05:23:21.581Z,64.00
2023-05-18T05:24:20.762Z,68.00
2023-05-18T05:25:41.684Z,68.00
2023-05-18T05:26:41.645Z,68.00
2023-05-18T05:27:20.595Z,68.00
2023-05-18T05:28:20.565Z,68.00
2023-05-18T05:29:20.498Z,68.00
2023-05-18T05:30:41.423Z,68.00
2023-05-18T05:31:41.399Z,68.00
2023-05-18T05:32:20.428Z,72.00
2023-05-18T05:33:20.256Z,68.00
2023-05-18T05:34:20.214Z,68.00
2023-05-18T05:35:41.134Z,68.00
2023-05-18T05:36:41.090Z,72.00
2023-05-18T05:37:20.016Z,72.00
2023-05-18T05:38:19.979Z,68.00
2023-05-18T05:39:19.916Z,72.00
2023-05-18T05:40:40.848Z,68.00
2023-05-18T05:41:40.805Z,72.00
2023-05-18T05:42:19.763Z,72.00
2023-05-18T05:43:19.698Z,72.00
2023-05-18T05:44:19.641Z,76.00
2023-05-18T05:45:40.556Z,72.00
2023-05-18T05:46:40.574Z,72.00
2023-05-18T05:47:19.480Z,72.00
2023-05-18T05:48:19.461Z,76.00
2023-05-18T05:49:19.365Z,72.00
2023-05-18T05:50:42.143Z,72.00
2023-05-18T05:51:40.255Z,76.00
2023-05-18T05:52:19.197Z,80.00
2023-05-18T05:53:19.137Z,76.00
2023-05-18T05:54:19.085Z,76.00
2023-05-18T05:55:40.012Z,80.00
2023-05-18T05:56:39.971Z,80.00
2023-05-18T05:57:18.912Z,80.00
2023-05-18T05:58:18.856Z,80.00
2023-05-18T05:59:18.791Z,80.00
2023-05-18T06:00:39.723Z,80.00
2023-05-18T06:01:39.672Z,80.00
2023-05-18T06:02:18.734Z,72.00
2023-05-18T06:03:18.678Z,72.00
2023-05-18T06:04:18.604Z,68.00
2023-05-18T06:05:40.103Z,68.00
2023-05-18T06:06:39.398Z,68.00
2023-05-18T06:07:18.356Z,72.00
2023-05-18T06:08:18.313Z,76.00
2023-05-18T06:09:18.241Z,72.00
2023-05-18T06:10:39.180Z,80.00
2023-05-18T06:11:39.114Z,80.00
2023-05-18T06:12:18.072Z,80.00
2023-05-18T06:13:18.009Z,84.00
2023-05-18T06:14:18.056Z,84.00
2023-05-18T06:15:38.902Z,88.00
2023-05-18T06:16:38.843Z,88.00
2023-05-18T06:17:17.792Z,92.00
2023-05-18T06:18:17.754Z,92.00
2023-05-18T06:19:17.877Z,92.00
2023-05-18T06:20:38.615Z,92.00
2023-05-18T06:21:38.556Z,92.00
2023-05-18T06:22:17.508Z,96.00
2023-05-18T06:23:17.444Z,96.00
2023-05-18T06:24:17.397Z,96.00
2023-05-18T06:25:38.314Z,96.00
2023-05-18T06:26:38.270Z,100.00
2023-05-18T06:27:17.228Z,96.00
2023-05-18T06:28:17.146Z,100.00
2023-05-18T06:29:17.140Z,100.00
2023-05-18T06:30:38.046Z,100.00
2023-05-18T06:31:38.040Z,100.00
2023-05-18T06:32:16.985Z,100.00
2023-05-18T06:33:17.006Z,100.00
2023-05-18T06:34:16.841Z,104.00
2023-05-18T06:35:37.765Z,104.00
2023-05-18T06:36:37.710Z,104.00
2023-05-18T06:37:16.665Z,104.00
2023-05-18T06:38:16.613Z,104.00
2023-05-18T06:39:16.536Z,104.00
2023-05-18T06:40:37.469Z,108.00
2023-05-18T06:41:37.421Z,104.00
2023-05-18T06:42:16.392Z,108.00
2023-05-18T06:43:16.328Z,108.00
2023-05-18T06:44:16.248Z,108.00
2023-05-18T06:45:37.757Z,108.00
2023-05-18T06:46:37.259Z,100.00
2023-05-18T06:47:16.104Z,96.00
2023-05-18T06:48:16.025Z,100.00
2023-05-18T06:49:15.974Z,100.00
2023-05-18T06:50:36.904Z,104.00
2023-05-18T06:51:36.871Z,104.00
2023-05-18T06:52:15.824Z,104.00
2023-05-18T06:53:15.752Z,104.00
2023-05-18T06:54:15.694Z,112.00
2023-05-18T06:55:36.643Z,108.00
2023-05-18T06:56:36.584Z,112.00
2023-05-18T06:57:15.553Z,112.00
2023-05-18T06:58:15.488Z,112.00
2023-05-18T06:59:15.429Z,116.00
2023-05-18T07:00:36.359Z,116.00
2023-05-18T07:01:36.364Z,116.00
2023-05-18T07:02:15.265Z,116.00
2023-05-18T07:03:15.250Z,120.00
2023-05-18T07:04:15.173Z,116.00
2023-05-18T07:05:39.207Z,116.00
2023-05-18T07:06:36.040Z,116.00
2023-05-18T07:07:14.987Z,116.00
2023-05-18T07:08:14.934Z,116.00
2023-05-18T07:09:14.856Z,120.00
2023-05-18T07:10:35.792Z,120.00
2023-05-18T07:11:38.608Z,120.00
2023-05-18T07:12:14.700Z,120.00
2023-05-18T07:13:14.673Z,116.00
2023-05-18T07:14:14.576Z,120.00
2023-05-18T07:15:35.607Z,120.00
2023-05-18T07:16:35.707Z,120.00
2023-05-18T07:17:14.412Z,120.00
2023-05-18T07:18:14.416Z,120.00
2023-05-18T07:19:14.345Z,124.00
2023-05-18T07:20:35.243Z,120.00
2023-05-18T07:21:35.177Z,124.00
2023-05-18T07:22:14.141Z,120.00
2023-05-18T07:23:14.088Z,124.00
2023-05-18T07:24:20.612Z,128.00
2023-05-18T07:25:34.948Z,124.00
2023-05-18T07:26:34.901Z,128.00
2023-05-18T07:27:13.859Z,124.00
2023-05-18T07:28:13.804Z,124.00
2023-05-18T07:29:13.745Z,124.00
2023-05-18T07:30:34.662Z,128.00
2023-05-18T07:31:34.653Z,128.00
2023-05-18T07:32:13.567Z,128.00
2023-05-18T07:33:13.568Z,128.00
2023-05-18T07:34:13.498Z,128.00
2023-05-18T07:35:34.397Z,132.00
2023-05-18T07:36:34.341Z,132.00
2023-05-18T07:37:13.287Z,132.00
2023-05-18T07:38:13.224Z,128.00
2023-05-18T07:39:13.183Z,128.00
2023-05-18T07:40:34.132Z,132.00
2023-05-18T07:41:34.051Z,132.00
2023-05-18T07:42:13.071Z,132.00
2023-05-18T07:43:12.941Z,132.00
2023-05-18T07:44:12.879Z,136.00
2023-05-18T07:45:34.248Z,132.00
2023-05-18T07:46:33.802Z,136.00
2023-05-18T07:47:12.742Z,136.00
2023-05-18T07:48:12.699Z,132.00
2023-05-18T07:49:12.616Z,132.00
2023-05-18T07:50:33.528Z,136.00
2023-05-18T07:51:33.481Z,136.00
2023-05-18T07:52:12.448Z,140.00
2023-05-18T07:53:12.397Z,136.00
2023-05-18T07:54:12.313Z,140.00
2023-05-18T07:55:33.453Z,140.00
2023-05-18T07:56:33.206Z,140.00
2023-05-18T07:57:12.147Z,140.00
2023-05-18T07:58:12.096Z,144.00
2023-05-18T07:59:12.063Z,144.00
2023-05-18T08:00:32.994Z,140.00
2023-05-18T08:01:32.931Z,140.00
2023-05-18T08:02:11.912Z,140.00
2023-05-18T08:03:12.057Z,140.00
2023-05-18T08:04:11.878Z,108.00
2023-05-18T08:05:32.928Z,136.00
2023-05-18T08:06:32.672Z,144.00
2023-05-18T08:07:11.615Z,144.00
2023-05-18T08:08:11.538Z,144.00
2023-05-18T08:09:11.491Z,144.00
2023-05-18T08:10:32.406Z,144.00
2023-05-18T08:11:32.347Z,144.00
2023-05-18T08:12:11.328Z,144.00
2023-05-18T08:13:13.158Z,148.00
2023-05-18T08:14:11.223Z,148.00
2023-05-18T08:15:32.353Z,144.00
2023-05-18T08:16:32.081Z,148.00
2023-05-18T08:17:11.089Z,96.00
2023-05-18T08:18:11.060Z,148.00
2023-05-18T08:19:11.028Z,148.00
2023-05-18T08:20:31.933Z,148.00
2023-05-18T08:21:31.809Z,152.00
2023-05-18T08:22:10.769Z,148.00
2023-05-18T08:23:10.697Z,148.00
2023-05-18T08:24:10.643Z,148.00
2023-05-18T08:25:31.762Z,148.00
2023-05-18T08:26:31.526Z,72.00
2023-05-18T08:27:10.490Z,76.00
2023-05-18T08:28:10.420Z,128.00
2023-05-18T08:29:10.460Z,152.00
2023-05-18T08:30:31.329Z,96.00
2023-05-18T08:31:31.278Z,84.00
2023-05-18T08:32:10.263Z,164.00
2023-05-18T08:33:10.185Z,168.00
2023-05-18T08:34:10.088Z,164.00
2023-05-18T08:35:31.248Z,164.00
2023-05-18T08:36:30.943Z,168.00
2023-05-18T08:37:09.918Z,172.00
2023-05-18T08:38:09.858Z,176.00
2023-05-18T08:39:09.801Z,172.00
2023-05-18T08:40:30.749Z,176.00
2023-05-18T08:41:30.666Z,88.00
2023-05-18T08:42:09.669Z,100.00
2023-05-18T08:43:09.576Z,104.00
2023-05-18T08:44:09.533Z,160.00
2023-05-18T08:45:30.713Z,196.00
2023-05-18T08:46:30.406Z,168.00
2023-05-18T08:47:09.370Z,188.00
2023-05-18T08:48:09.399Z,200.00
2023-05-18T08:49:09.318Z,188.00
2023-05-18T08:50:30.376Z,200.00
2023-05-18T08:51:30.131Z,184.00
2023-05-18T08:52:09.081Z,188.00
2023-05-18T08:53:09.025Z,196.00
2023-05-18T08:54:08.973Z,188.00
2023-05-18T08:55:30.008Z,192.00
2023-05-18T08:56:29.837Z,200.00
2023-05-18T08:57:08.818Z,196.00
2023-05-18T08:58:08.739Z,116.00
2023-05-18T08:59:08.728Z,120.00
2023-05-18T09:00:30.023Z,176.00
2023-05-18T09:01:29.810Z,124.00
2023-05-18T09:02:08.643Z,144.00
2023-05-18T09:03:08.516Z,128.00
2023-05-18T09:04:08.386Z,204.00
2023-05-18T09:05:29.638Z,200.00
2023-05-18T09:06:29.375Z,208.00
2023-05-18T09:07:08.237Z,132.00
2023-05-18T09:08:08.171Z,120.00
2023-05-18T09:09:08.135Z,120.00
2023-05-18T09:10:29.045Z,132.00
2023-05-18T09:11:29.017Z,132.00
2023-05-18T09:12:07.972Z,176.00
2023-05-18T09:13:07.894Z,196.00
2023-05-18T09:14:07.847Z,192.00
2023-05-18T09:15:28.989Z,180.00
2023-05-18T09:16:28.887Z,184.00
2023-05-18T09:17:07.686Z,192.00
2023-05-18T09:18:07.663Z,188.00
2023-05-18T09:19:07.574Z,208.00
2023-05-18T09:20:28.511Z,180.00
2023-05-18T09:21:28.470Z,208.00
2023-05-18T09:22:07.388Z,208.00
2023-05-18T09:23:07.356Z,208.00
2023-05-18T09:24:07.288Z,204.00
2023-05-18T09:25:28.442Z,196.00
2023-05-18T09:26:28.148Z,188.00
2023-05-18T09:27:07.131Z,184.00
2023-05-18T09:28:07.051Z,188.00
2023-05-18T09:29:07.018Z,172.00
2023-05-18T09:30:27.941Z,176.00
2023-05-18T09:31:28.102Z,140.00
2023-05-18T09:32:06.950Z,120.00
2023-05-18T09:33:06.813Z,164.00
2023-05-18T09:34:06.804Z,104.00
2023-05-18T09:35:27.663Z,196.00
2023-05-18T09:36:27.588Z,136.00
2023-05-18T09:37:06.568Z,188.00
2023-05-18T09:38:06.508Z,156.00
2023-05-18T09:39:06.448Z,128.00
2023-05-18T09:40:27.377Z,196.00
2023-05-18T09:41:27.344Z,204.00
2023-05-18T09:42:06.284Z,164.00
2023-05-18T09:43:06.233Z,188.00
2023-05-18T09:44:06.155Z,188.00
2023-05-18T09:45:27.115Z,188.00
2023-05-18T09:46:27.068Z,188.00
2023-05-18T09:47:06.072Z,196.00
2023-05-18T09:48:06.038Z,192.00
2023-05-18T09:49:05.943Z,192.00
2023-05-18T09:50:26.820Z,200.00
2023-05-18T09:51:26.791Z,196.00
2023-05-18T09:52:05.727Z,204.00
2023-05-18T09:53:05.693Z,200.00
2023-05-18T09:54:05.616Z,224.00
2023-05-18T09:55:26.564Z,220.00
2023-05-18T09:56:26.500Z,136.00
2023-05-18T09:58:05.401Z,172.00
2023-05-18T09:59:05.339Z,232.00
2023-05-18T10:00:26.359Z,160.00
2023-05-18T10:01:26.316Z,144.00
2023-05-18T10:02:05.183Z,212.00
2023-05-18T10:03:05.178Z,168.00
2023-05-18T10:04:05.229Z,152.00
2023-05-18T10:05:26.010Z,152.00
2023-05-18T10:06:25.974Z,232.00
2023-05-18T10:07:04.882Z,144.00
2023-05-18T10:08:04.849Z,224.00
2023-05-18T10:09:04.782Z,144.00
2023-05-18T10:10:25.718Z,128.00
2023-05-18T10:11:25.656Z,220.00
2023-05-18T10:12:04.632Z,220.00
2023-05-18T10:13:04.564Z,128.00
2023-05-18T10:14:04.503Z,216.00
2023-05-18T10:15:25.457Z,216.00
2023-05-18T10:16:25.406Z,212.00
2023-05-18T10:17:15.089Z,172.00
2023-05-18T10:18:04.324Z,212.00
2023-05-18T10:19:04.270Z,140.00
2023-05-18T10:20:25.168Z,128.00
2023-05-18T10:21:25.099Z,124.00
2023-05-18T10:22:04.047Z,112.00
2023-05-18T10:23:04.011Z,120.00
2023-05-18T10:24:03.931Z,208.00
2023-05-18T10:25:24.893Z,200.00
2023-05-18T10:26:24.825Z,192.00
2023-05-18T10:27:03.808Z,184.00
2023-05-18T10:28:03.732Z,188.00
2023-05-18T10:29:03.658Z,188.00
2023-05-18T10:30:24.637Z,192.00
2023-05-18T10:31:24.599Z,192.00
2023-05-18T10:32:06.821Z,196.00
2023-05-18T10:33:07.000Z,200.00
2023-05-18T10:34:03.400Z,204.00
2023-05-18T10:35:24.382Z,208.00
2023-05-18T10:36:24.275Z,196.00
2023-05-18T10:37:03.232Z,212.00
2023-05-18T10:38:03.190Z,212.00
2023-05-18T10:39:03.102Z,204.00
2023-05-18T10:40:24.069Z,208.00
2023-05-18T10:41:23.978Z,204.00
2023-05-18T10:42:02.959Z,196.00
2023-05-18T10:43:02.883Z,200.00
2023-05-18T10:44:02.844Z,200.00
2023-05-18T10:45:23.754Z,200.00
2023-05-18T10:46:23.755Z,200.00
2023-05-18T10:47:02.797Z,200.00
2023-05-18T10:48:02.694Z,200.00
2023-05-18T10:49:02.558Z,208.00
2023-05-18T10:50:23.508Z,220.00
2023-05-18T10:51:23.453Z,208.00
2023-05-18T10:52:02.402Z,208.00
2023-05-18T10:53:02.384Z,208.00
2023-05-18T10:54:02.310Z,204.00
2023-05-18T10:55:23.220Z,212.00
2023-05-18T10:56:23.161Z,224.00
2023-05-18T10:57:02.209Z,224.00
2023-05-18T10:58:02.052Z,220.00
2023-05-18T10:59:01.986Z,228.00
2023-05-18T11:00:22.959Z,216.00
2023-05-18T11:01:22.927Z,216.00
2023-05-18T11:02:01.953Z,216.00
2023-05-18T11:03:01.822Z,220.00
2023-05-18T11:04:01.728Z,224.00
2023-05-18T11:05:22.732Z,264.00
2023-05-18T11:06:22.593Z,268.00
2023-05-18T11:07:01.561Z,272.00
2023-05-18T11:08:01.557Z,276.00
2023-05-18T11:09:01.436Z,168.00
2023-05-18T11:10:22.401Z,272.00
2023-05-18T11:11:22.327Z,268.00
2023-05-18T11:12:01.312Z,276.00
2023-05-18T11:13:01.232Z,288.00
2023-05-18T11:14:01.178Z,284.00
2023-05-18T11:15:22.126Z,292.00
2023-05-18T11:16:22.081Z,300.00
2023-05-18T11:17:01.000Z,308.00
2023-05-18T11:18:01.000Z,320.00
2023-05-18T11:19:00.910Z,336.00
2023-05-18T11:20:21.818Z,344.00
2023-05-18T11:21:21.777Z,416.00
2023-05-18T11:22:00.718Z,412.00
2023-05-18T11:23:00.658Z,384.00
2023-05-18T11:24:00.615Z,364.00
2023-05-18T11:25:21.550Z,368.00
2023-05-18T11:26:21.569Z,368.00
2023-05-18T11:27:00.459Z,372.00
2023-05-18T11:28:00.414Z,380.00
2023-05-18T11:29:00.340Z,400.00
2023-05-18T11:30:21.316Z,432.00
2023-05-18T11:31:21.273Z,484.00
2023-05-18T11:32:01.187Z,576.00
2023-05-18T11:33:00.283Z,716.00
2023-05-18T11:34:00.091Z,944.00
2023-05-18T11:35:21.010Z,760.00
2023-05-18T11:36:20.952Z,1500.00
2023-05-18T11:36:59.902Z,1656.00
2023-05-18T11:37:59.852Z,2140.00
2023-05-18T11:38:59.790Z,2248.00
2023-05-18T11:40:20.734Z,2244.00
2023-05-18T11:41:20.674Z,2056.00
2023-05-18T11:41:59.640Z,1736.00
2023-05-18T11:42:59.564Z,1360.00
2023-05-18T11:43:59.503Z,388.00
2023-05-18T11:45:20.432Z,564.00
2023-05-18T11:46:20.374Z,292.00
2023-05-18T11:46:59.356Z,168.00
2023-05-18T11:47:59.353Z,228.00
2023-05-18T11:48:59.268Z,540.00
2023-05-18T11:50:20.157Z,516.00
2023-05-18T11:51:20.113Z,468.00
2023-05-18T11:51:59.255Z,440.00
2023-05-18T11:52:59.036Z,440.00
2023-05-18T11:53:58.966Z,440.00
2023-05-18T11:55:19.885Z,468.00
2023-05-18T11:56:19.854Z,236.00
2023-05-18T11:56:58.801Z,436.00
2023-05-18T11:57:58.746Z,288.00
2023-05-18T11:58:58.667Z,184.00
2023-05-18T12:00:19.621Z,152.00
2023-05-18T12:01:19.557Z,136.00
2023-05-18T12:01:58.553Z,128.00
2023-05-18T12:02:58.586Z,124.00
2023-05-18T12:03:58.460Z,128.00
2023-05-18T12:05:19.363Z,164.00
2023-05-18T12:06:19.292Z,372.00
2023-05-18T12:06:58.240Z,204.00
2023-05-18T12:07:58.184Z,184.00
2023-05-18T12:08:58.380Z,148.00
2023-05-18T12:10:19.094Z,136.00
2023-05-18T12:11:19.003Z,180.00
2023-05-18T12:11:57.973Z,160.00
2023-05-18T12:12:57.923Z,336.00
2023-05-18T12:13:57.892Z,184.00
2023-05-18T12:15:18.790Z,188.00
2023-05-18T12:16:18.755Z,284.00
2023-05-18T12:16:57.804Z,284.00
2023-05-18T12:17:57.694Z,296.00
2023-05-18T12:18:57.664Z,168.00
2023-05-18T12:20:18.534Z,260.00
2023-05-18T12:21:19.082Z,324.00
2023-05-18T12:21:58.976Z,180.00
2023-05-18T12:22:57.344Z,124.00
2023-05-18T12:23:57.308Z,116.00
2023-05-18T12:25:18.236Z,112.00
2023-05-18T12:26:18.192Z,112.00
2023-05-18T12:26:57.120Z,132.00
2023-05-18T12:27:57.342Z,136.00
2023-05-18T12:28:57.009Z,116.00
2023-05-18T12:30:17.999Z,120.00
2023-05-18T12:31:17.992Z,128.00
2023-05-18T12:31:56.880Z,140.00
2023-05-18T12:32:56.875Z,128.00
2023-05-18T12:33:59.038Z,144.00
2023-05-18T12:35:17.685Z,160.00
2023-05-18T12:36:17.648Z,168.00
2023-05-18T12:36:56.614Z,136.00
2023-05-18T12:37:56.540Z,136.00
2023-05-18T12:38:56.464Z,140.00
2023-05-18T12:40:17.477Z,136.00
2023-05-18T12:41:17.349Z,136.00
2023-05-18T12:41:56.325Z,240.00
2023-05-18T12:42:56.284Z,128.00
2023-05-18T12:43:56.210Z,128.00
2023-05-18T12:45:17.123Z,132.00
2023-05-18T12:46:17.119Z,132.00
2023-05-18T12:46:56.175Z,240.00
2023-05-18T12:47:56.385Z,256.00
2023-05-18T12:48:55.930Z,252.00